createdAt,value
2022-11-26T00:01:18.981Z,15.68
2022-11-26T00:03:45.372Z,15.66
2022-11-26T00:06:11.738Z,15.63
2022-11-26T00:08:38.428Z,15.63
2022-11-26T00:11:04.769Z,15.60
2022-11-26T00:13:31.219Z,15.57
2022-11-26T00:15:57.618Z,15.56
2022-11-26T00:18:23.951Z,15.54
2022-11-26T00:20:50.270Z,15.52
2022-11-26T00:23:16.857Z,15.50
2022-11-26T00:25:43.260Z,15.46
2022-11-26T00:28:09.625Z,15.44
2022-11-26T00:30:36.157Z,15.42
2022-11-26T00:33:02.804Z,15.39
2022-11-26T00:35:29.255Z,15.38
2022-11-26T00:37:55.618Z,15.36
2022-11-26T00:40:21.985Z,15.35
2022-11-26T00:42:48.427Z,15.31
2022-11-26T00:45:14.738Z,15.30
2022-11-26T00:47:41.101Z,15.27
2022-11-26T00:50:07.421Z,15.26
2022-11-26T00:52:34.035Z,15.25
2022-11-26T00:55:00.581Z,15.22
2022-11-26T00:57:27.035Z,15.21
2022-11-26T00:59:53.600Z,15.21
2022-11-26T01:02:19.914Z,15.18
2022-11-26T01:04:46.377Z,15.15
2022-11-26T01:07:12.704Z,15.14
2022-11-26T01:09:39.180Z,15.12
2022-11-26T01:12:05.455Z,15.12
2022-11-26T01:14:31.858Z,15.12
2022-11-26T01:16:58.357Z,15.10
2022-11-26T01:19:24.746Z,15.08
2022-11-26T01:21:51.048Z,15.09
2022-11-26T01:24:17.601Z,15.07
2022-11-26T01:26:43.921Z,15.05
2022-11-26T01:29:10.286Z,15.04
2022-11-26T01:31:36.735Z,15.02
2022-11-26T01:34:03.110Z,15.02
2022-11-26T01:36:29.633Z,14.98
2022-11-26T01:38:56.191Z,14.97
2022-11-26T01:41:22.536Z,14.96
2022-11-26T01:43:48.988Z,14.94
2022-11-26T01:46:15.409Z,14.93
2022-11-26T01:48:41.760Z,14.91
2022-11-26T01:51:08.195Z,14.89
2022-11-26T01:53:34.528Z,14.86
2022-11-26T01:56:00.982Z,14.87
2022-11-26T01:58:27.509Z,14.86
2022-11-26T02:00:53.926Z,14.84
2022-11-26T02:03:21.927Z,14.83
2022-11-26T02:05:48.231Z,14.82
2022-11-26T02:08:14.711Z,14.81
2022-11-26T02:10:41.219Z,14.79
2022-11-26T02:13:07.525Z,14.78
2022-11-26T02:15:34.241Z,14.77
2022-11-26T02:18:00.601Z,14.75
2022-11-26T02:20:27.001Z,14.73
2022-11-26T02:22:53.411Z,14.73
2022-11-26T02:25:19.799Z,14.72
2022-11-26T02:27:46.198Z,14.69
2022-11-26T02:30:12.496Z,14.69
2022-11-26T02:32:38.897Z,14.69
2022-11-26T02:35:05.251Z,14.68
2022-11-26T02:37:31.677Z,14.67
2022-11-26T02:39:58.028Z,14.65
2022-11-26T02:42:24.357Z,14.65
2022-11-26T02:44:50.717Z,14.63
2022-11-26T02:47:17.062Z,14.62
2022-11-26T02:49:43.494Z,14.63
2022-11-26T02:52:09.854Z,14.63
2022-11-26T02:54:36.457Z,14.62
2022-11-26T02:57:03.045Z,14.60
2022-11-26T02:59:29.459Z,14.60
2022-11-26T03:01:55.770Z,14.58
2022-11-26T03:04:22.158Z,14.59
2022-11-26T03:06:48.699Z,14.57
2022-11-26T03:09:15.028Z,14.57
2022-11-26T03:11:41.442Z,14.56
2022-11-26T03:14:07.776Z,14.54
2022-11-26T03:16:34.274Z,14.54
2022-11-26T03:19:00.641Z,14.53
2022-11-26T03:21:27.084Z,14.52
2022-11-26T03:23:53.355Z,14.50
2022-11-26T03:26:19.641Z,14.51
2022-11-26T03:28:45.974Z,14.50
2022-11-26T03:31:12.349Z,14.48
2022-11-26T03:33:38.871Z,14.50
2022-11-26T03:36:05.284Z,14.47
2022-11-26T03:38:31.602Z,14.47
2022-11-26T03:40:57.882Z,14.48
2022-11-26T03:43:24.196Z,14.45
2022-11-26T03:45:50.639Z,14.45
2022-11-26T03:48:17.028Z,14.45
2022-11-26T03:50:43.431Z,14.44
2022-11-26T03:53:09.746Z,14.43
2022-11-26T03:55:36.042Z,14.43
2022-11-26T03:58:02.403Z,14.42
2022-11-26T04:00:28.688Z,14.39
2022-11-26T04:02:55.046Z,14.38
2022-11-26T04:05:21.567Z,14.40
2022-11-26T04:07:48.092Z,14.39
2022-11-26T04:10:14.442Z,14.37
2022-11-26T04:12:40.983Z,14.38
2022-11-26T04:15:07.313Z,14.39
2022-11-26T04:17:33.804Z,14.37
2022-11-26T04:20:00.255Z,14.35
2022-11-26T04:22:26.715Z,14.36
2022-11-26T04:24:53.012Z,14.36
2022-11-26T04:27:19.451Z,14.34
2022-11-26T04:29:45.863Z,14.34
2022-11-26T04:32:12.244Z,14.32
2022-11-26T04:34:38.719Z,14.32
2022-11-26T04:37:05.455Z,14.29
2022-11-26T04:39:31.707Z,14.30
2022-11-26T04:41:57.982Z,14.30
2022-11-26T04:44:24.381Z,14.30
2022-11-26T04:46:50.736Z,14.29
2022-11-26T04:49:17.137Z,14.28
2022-11-26T04:51:43.592Z,14.29
2022-11-26T04:54:12.909Z,14.27
2022-11-26T04:56:39.831Z,14.26
2022-11-26T04:59:06.225Z,14.28
2022-11-26T05:01:32.821Z,14.26
2022-11-26T05:03:59.255Z,14.26
2022-11-26T05:06:25.801Z,14.25
2022-11-26T05:08:52.168Z,14.23
2022-11-26T05:11:18.443Z,14.24
2022-11-26T05:13:44.687Z,14.23
2022-11-26T05:16:11.066Z,14.23
2022-11-26T05:18:37.486Z,14.24
2022-11-26T05:21:03.958Z,14.23
2022-11-26T05:23:30.383Z,14.22
2022-11-26T05:25:56.761Z,14.22
2022-11-26T05:28:23.099Z,14.22
2022-11-26T05:30:49.712Z,14.22
2022-11-26T05:33:16.020Z,14.20
2022-11-26T05:35:42.379Z,14.21
2022-11-26T05:38:09.049Z,14.20
2022-11-26T05:40:35.345Z,14.20
2022-11-26T05:43:01.618Z,14.20
2022-11-26T05:45:28.029Z,14.17
2022-11-26T05:47:54.368Z,14.17
2022-11-26T05:50:20.740Z,14.16
2022-11-26T05:52:47.040Z,14.17
2022-11-26T05:55:13.407Z,14.17
2022-11-26T05:57:39.741Z,14.16
2022-11-26T06:00:06.055Z,14.15
2022-11-26T06:02:32.474Z,14.15
2022-11-26T06:04:58.929Z,14.15
2022-11-26T06:07:25.312Z,14.13
2022-11-26T06:09:51.697Z,14.14
2022-11-26T06:12:18.131Z,14.11
2022-11-26T06:14:45.021Z,14.12
2022-11-26T06:17:11.675Z,14.12
2022-11-26T06:19:37.984Z,14.10
2022-11-26T06:22:04.303Z,14.10
2022-11-26T06:24:30.624Z,14.09
2022-11-26T06:26:56.947Z,14.09
2022-11-26T06:29:27.701Z,14.11
2022-11-26T06:31:54.424Z,14.10
2022-11-26T06:34:20.882Z,14.08
2022-11-26T06:36:47.309Z,14.06
2022-11-26T06:39:13.663Z,14.09
2022-11-26T06:41:39.944Z,14.08
2022-11-26T06:44:06.215Z,14.07
2022-11-26T06:46:32.514Z,14.07
2022-11-26T06:48:58.885Z,14.07
2022-11-26T06:51:25.237Z,14.05
2022-11-26T06:53:51.559Z,14.06
2022-11-26T06:56:19.171Z,14.04
2022-11-26T06:58:45.788Z,14.03
2022-11-26T07:01:12.158Z,14.04
2022-11-26T07:03:38.548Z,14.03
2022-11-26T07:06:04.989Z,14.04
2022-11-26T07:08:31.272Z,14.04
2022-11-26T07:10:57.718Z,14.02
2022-11-26T07:13:24.053Z,14.01
2022-11-26T07:15:50.691Z,14.00
2022-11-26T07:18:17.110Z,14.02
2022-11-26T07:20:43.509Z,14.00
2022-11-26T07:23:09.814Z,14.00
2022-11-26T07:25:36.246Z,13.99
2022-11-26T07:28:02.667Z,13.99
2022-11-26T07:30:29.175Z,13.99
2022-11-26T07:32:55.902Z,13.97
2022-11-26T07:35:22.241Z,13.98
2022-11-26T07:37:48.679Z,13.98
2022-11-26T07:40:15.149Z,13.98
2022-11-26T07:42:41.497Z,13.97
2022-11-26T07:45:07.836Z,13.97
2022-11-26T07:47:34.178Z,13.96
2022-11-26T07:50:00.543Z,13.96
2022-11-26T07:52:26.952Z,13.96
2022-11-26T07:54:53.247Z,13.97
2022-11-26T07:57:19.545Z,13.98
2022-11-26T07:59:45.885Z,13.96
2022-11-26T08:02:12.260Z,13.98
2022-11-26T08:04:38.952Z,13.95
2022-11-26T08:07:05.459Z,13.94
2022-11-26T08:09:31.973Z,13.95
2022-11-26T08:11:58.281Z,13.95
2022-11-26T08:14:24.772Z,13.96
2022-11-26T08:16:51.274Z,13.94
2022-11-26T08:19:17.631Z,13.96
2022-11-26T08:21:43.939Z,13.94
2022-11-26T08:24:10.356Z,13.94
2022-11-26T08:26:42.528Z,13.92
2022-11-26T08:29:10.484Z,13.94
2022-11-26T08:31:39.989Z,13.97
2022-11-26T08:34:10.158Z,13.96
2022-11-26T08:36:36.470Z,13.99
2022-11-26T08:39:02.805Z,13.95
2022-11-26T08:41:29.216Z,13.96
2022-11-26T08:44:10.911Z,13.93
2022-11-26T08:46:37.471Z,13.94
2022-11-26T08:49:03.869Z,13.90
2022-11-26T08:51:30.149Z,13.93
2022-11-26T08:53:56.468Z,13.92
2022-11-26T08:56:22.828Z,13.88
2022-11-26T08:58:49.415Z,13.96
2022-11-26T09:01:15.924Z,14.07
2022-11-26T09:03:42.359Z,14.24
2022-11-26T09:06:08.752Z,14.40
2022-11-26T09:08:35.311Z,14.57
2022-11-26T09:11:01.783Z,14.73
2022-11-26T09:13:28.140Z,14.87
2022-11-26T09:15:54.533Z,14.98
2022-11-26T09:18:20.958Z,15.07
2022-11-26T09:20:47.514Z,15.13
2022-11-26T09:23:14.080Z,15.25
2022-11-26T09:25:40.399Z,15.29
2022-11-26T09:28:06.970Z,15.32
2022-11-26T09:30:33.347Z,15.44
2022-11-26T09:32:59.846Z,15.53
2022-11-26T09:35:26.242Z,15.60
2022-11-26T09:37:52.645Z,15.68
2022-11-26T09:40:18.993Z,15.73
2022-11-26T09:42:45.428Z,15.76
2022-11-26T09:45:12.175Z,15.84
2022-11-26T09:47:38.760Z,15.86
2022-11-26T09:50:05.067Z,15.87
2022-11-26T09:52:31.723Z,15.87
2022-11-26T09:54:58.065Z,15.88
2022-11-26T09:57:24.391Z,15.92
2022-11-26T09:59:50.940Z,15.91
2022-11-26T10:02:17.371Z,15.90
2022-11-26T10:04:43.943Z,15.94
2022-11-26T10:07:10.392Z,15.98
2022-11-26T10:09:36.766Z,16.00
2022-11-26T10:12:03.100Z,16.00
2022-11-26T10:14:29.542Z,16.01
2022-11-26T10:16:56.163Z,16.00
2022-11-26T10:19:22.674Z,16.03
2022-11-26T10:22:04.543Z,16.04
2022-11-26T10:24:30.890Z,16.17
2022-11-26T10:26:57.486Z,16.30
2022-11-26T10:29:23.869Z,16.46
2022-11-26T10:31:50.274Z,16.62
2022-11-26T10:34:16.576Z,16.78
2022-11-26T10:36:43.007Z,16.91
2022-11-26T10:39:09.400Z,17.01
2022-11-26T10:41:35.691Z,17.13
2022-11-26T10:44:02.075Z,17.19
2022-11-26T10:46:28.680Z,17.26
2022-11-26T10:48:55.063Z,17.32
2022-11-26T10:51:26.296Z,17.33
2022-11-26T10:53:53.188Z,17.39
2022-11-26T10:56:19.733Z,17.42
2022-11-26T10:58:46.246Z,17.41
2022-11-26T11:01:12.705Z,17.41
2022-11-26T11:04:06.636Z,17.44
2022-11-26T11:06:25.686Z,17.38
2022-11-26T11:08:52.044Z,17.43
2022-11-26T11:11:18.411Z,17.47
2022-11-26T11:13:44.797Z,17.51
2022-11-26T11:16:11.388Z,17.52
2022-11-26T11:18:37.787Z,17.54
2022-11-26T11:21:04.387Z,17.56
2022-11-26T11:24:00.106Z,17.59
2022-11-26T11:26:17.277Z,17.59
2022-11-26T11:28:43.672Z,17.61
2022-11-26T11:31:10.140Z,17.64
2022-11-26T11:33:36.632Z,17.67
2022-11-26T11:36:02.983Z,17.69
2022-11-26T11:38:29.288Z,17.71
2022-11-26T11:40:55.621Z,17.73
2022-11-26T11:43:21.890Z,17.76
2022-11-26T11:45:52.938Z,17.79
2022-11-26T11:48:20.557Z,17.81
2022-11-26T11:50:47.117Z,17.84
2022-11-26T11:53:13.507Z,17.86
2022-11-26T11:55:40.531Z,17.85
2022-11-26T11:58:07.097Z,17.89
2022-11-26T12:00:33.663Z,17.89
2022-11-26T12:03:00.190Z,17.94
2022-11-26T12:05:26.530Z,17.96
2022-11-26T12:07:52.982Z,18.00
2022-11-26T12:10:19.407Z,18.00
2022-11-26T12:12:45.868Z,18.09
2022-11-26T12:15:12.290Z,18.16
2022-11-26T12:17:38.704Z,18.24
2022-11-26T12:20:05.033Z,18.41
2022-11-26T12:22:31.348Z,18.58
2022-11-26T12:24:57.690Z,18.82
2022-11-26T12:27:24.338Z,19.03
2022-11-26T12:29:50.723Z,19.24
2022-11-26T12:32:17.041Z,19.39
2022-11-26T12:34:43.417Z,19.49
2022-11-26T12:37:09.731Z,19.55
2022-11-26T12:39:36.090Z,19.65
2022-11-26T12:42:02.433Z,19.47
2022-11-26T12:44:29.062Z,19.39
2022-11-26T12:46:55.347Z,19.32
2022-11-26T12:49:21.810Z,19.25
2022-11-26T12:51:48.154Z,19.16
2022-11-26T12:54:14.598Z,19.12
2022-11-26T12:56:40.887Z,19.06
2022-11-26T12:59:07.708Z,19.08
2022-11-26T13:01:34.195Z,19.06
2022-11-26T13:04:29.545Z,19.03
2022-11-26T13:06:47.135Z,19.01
2022-11-26T13:09:15.301Z,19.00
2022-11-26T13:11:41.937Z,18.98
2022-11-26T13:14:08.319Z,18.98
2022-11-26T13:16:34.910Z,18.96
2022-11-26T13:19:06.406Z,18.97
2022-11-26T13:21:33.240Z,18.97
2022-11-26T13:23:59.821Z,18.95
2022-11-26T13:26:26.272Z,18.79
2022-11-26T13:28:52.665Z,18.84
2022-11-26T13:31:19.112Z,18.99
2022-11-26T13:33:45.656Z,19.26
2022-11-26T13:36:11.925Z,19.47
2022-11-26T13:38:38.245Z,19.64
2022-11-26T13:41:04.516Z,19.78
2022-11-26T13:43:30.961Z,19.91
2022-11-26T13:45:57.578Z,20.02
2022-11-26T13:48:23.972Z,20.12
2022-11-26T13:50:50.331Z,20.19
2022-11-26T13:53:16.801Z,20.32
2022-11-26T13:55:43.120Z,20.18
2022-11-26T13:58:09.587Z,20.04
2022-11-26T14:00:35.867Z,19.99
2022-11-26T14:03:02.351Z,19.96
2022-11-26T14:05:28.840Z,19.93
2022-11-26T14:07:55.318Z,19.89
2022-11-26T14:10:21.781Z,19.90
2022-11-26T14:12:48.232Z,19.90
2022-11-26T14:15:14.555Z,19.92
2022-11-26T14:17:41.077Z,19.93
2022-11-26T14:20:07.336Z,19.93
2022-11-26T14:22:33.668Z,19.98
2022-11-26T14:25:00.096Z,19.96
2022-11-26T14:27:26.531Z,19.98
2022-11-26T14:29:53.016Z,20.05
2022-11-26T14:32:19.338Z,20.08
2022-11-26T14:34:45.711Z,20.10
2022-11-26T14:37:12.017Z,20.12
2022-11-26T14:39:38.786Z,20.19
2022-11-26T14:42:06.508Z,20.21
2022-11-26T14:44:33.041Z,20.23
2022-11-26T14:46:59.356Z,20.29
2022-11-26T14:49:25.702Z,20.30
2022-11-26T14:51:52.038Z,20.35
2022-11-26T14:54:18.364Z,20.41
2022-11-26T14:56:46.589Z,20.46
2022-11-26T14:59:13.107Z,20.45
2022-11-26T15:01:39.441Z,20.49
2022-11-26T15:04:05.841Z,20.49
2022-11-26T15:06:32.157Z,20.51
2022-11-26T15:08:58.458Z,20.52
2022-11-26T15:11:24.779Z,20.54
2022-11-26T15:13:51.171Z,20.57
2022-11-26T15:16:17.581Z,20.58
2022-11-26T15:18:44.231Z,20.61
2022-11-26T15:21:10.528Z,20.61
2022-11-26T15:23:36.922Z,20.65
2022-11-26T15:26:03.500Z,20.63
2022-11-26T15:28:29.894Z,20.66
2022-11-26T15:30:56.333Z,20.63
2022-11-26T15:33:22.753Z,20.65
2022-11-26T15:35:49.175Z,20.67
2022-11-26T15:38:15.646Z,20.65
2022-11-26T15:40:42.030Z,20.63
2022-11-26T15:43:08.409Z,20.63
2022-11-26T15:45:36.285Z,20.64
2022-11-26T15:48:03.463Z,20.65
2022-11-26T15:50:30.045Z,20.63
2022-11-26T15:52:56.494Z,20.60
2022-11-26T15:55:22.915Z,20.57
2022-11-26T15:57:49.666Z,20.61
2022-11-26T16:00:15.979Z,20.61
2022-11-26T16:02:42.391Z,20.61
2022-11-26T16:05:08.766Z,20.58
2022-11-26T16:07:35.212Z,20.56
2022-11-26T16:10:01.686Z,20.56
2022-11-26T16:12:28.015Z,20.56
2022-11-26T16:14:54.420Z,20.51
2022-11-26T16:17:20.794Z,20.53
2022-11-26T16:19:47.151Z,20.51
2022-11-26T16:22:13.468Z,20.49
2022-11-26T16:24:40.298Z,20.50
2022-11-26T16:27:06.756Z,20.47
2022-11-26T16:29:33.082Z,20.48
2022-11-26T16:31:59.448Z,20.46
2022-11-26T16:34:25.751Z,20.45
2022-11-26T16:36:52.172Z,20.42
2022-11-26T16:39:18.595Z,20.42
2022-11-26T16:41:45.047Z,20.41
2022-11-26T16:44:11.351Z,20.38
2022-11-26T16:46:37.771Z,20.35
2022-11-26T16:49:04.154Z,20.33
2022-11-26T16:51:30.418Z,20.32
2022-11-26T16:53:56.840Z,20.31
2022-11-26T16:56:23.325Z,20.30
2022-11-26T16:58:49.708Z,20.30
2022-11-26T17:01:16.641Z,20.29
2022-11-26T17:03:43.289Z,20.28
2022-11-26T17:06:09.683Z,20.26
2022-11-26T17:08:36.061Z,20.26
2022-11-26T17:11:02.356Z,20.25
2022-11-26T17:13:28.689Z,20.22
2022-11-26T17:15:55.125Z,20.22
2022-11-26T17:18:21.483Z,20.22
2022-11-26T17:20:47.861Z,20.21
2022-11-26T17:23:14.337Z,20.19
2022-11-26T17:25:40.676Z,20.18
2022-11-26T17:28:07.009Z,20.19
2022-11-26T17:30:33.567Z,20.17
2022-11-26T17:33:00.283Z,20.13
2022-11-26T17:35:26.833Z,20.12
2022-11-26T17:37:53.281Z,20.12
2022-11-26T17:40:19.600Z,20.00
2022-11-26T17:42:46.291Z,19.98
2022-11-26T17:45:12.702Z,20.02
2022-11-26T17:47:38.999Z,20.10
2022-11-26T17:50:05.373Z,20.24
2022-11-26T17:52:31.771Z,20.36
2022-11-26T17:54:58.201Z,20.41
2022-11-26T17:57:24.700Z,20.46
2022-11-26T17:59:51.148Z,20.47
2022-11-26T18:02:17.521Z,20.42
2022-11-26T18:04:43.888Z,20.42
2022-11-26T18:07:10.254Z,20.39
2022-11-26T18:09:36.652Z,20.35
2022-11-26T18:12:02.948Z,20.33
2022-11-26T18:14:29.647Z,20.29
2022-11-26T18:16:56.054Z,20.27
2022-11-26T18:19:22.657Z,20.22
2022-11-26T18:21:48.967Z,20.21
2022-11-26T18:24:15.403Z,20.19
2022-11-26T18:26:41.742Z,20.14
2022-11-26T18:29:08.095Z,20.11
2022-11-26T18:31:39.321Z,20.08
2022-11-26T18:34:06.210Z,20.08
2022-11-26T18:36:32.645Z,20.06
2022-11-26T18:38:59.043Z,20.05
2022-11-26T18:41:25.556Z,20.00
2022-11-26T18:43:51.923Z,19.94
2022-11-26T18:46:18.396Z,19.92
2022-11-26T18:48:44.907Z,19.89
2022-11-26T18:51:11.267Z,19.87
2022-11-26T18:53:37.610Z,19.83
2022-11-26T18:56:03.941Z,19.80
2022-11-26T18:58:30.294Z,19.79
2022-11-26T19:00:56.707Z,19.76
2022-11-26T19:03:23.103Z,19.72
2022-11-26T19:05:49.493Z,19.72
2022-11-26T19:08:15.801Z,19.68
2022-11-26T19:10:42.201Z,19.65
2022-11-26T19:13:08.573Z,19.63
2022-11-26T19:15:34.887Z,19.62
2022-11-26T19:18:01.232Z,19.58
2022-11-26T19:20:27.623Z,19.57
2022-11-26T19:22:53.986Z,19.55
2022-11-26T19:25:20.423Z,19.52
2022-11-26T19:27:46.724Z,19.51
2022-11-26T19:30:13.029Z,19.48
2022-11-26T19:32:39.354Z,19.47
2022-11-26T19:35:06.336Z,19.44
2022-11-26T19:37:32.753Z,19.43
2022-11-26T19:39:59.114Z,19.41
2022-11-26T19:42:25.539Z,19.41
2022-11-26T19:44:51.843Z,19.37
2022-11-26T19:47:18.307Z,19.37
2022-11-26T19:49:44.921Z,19.36
2022-11-26T19:52:11.352Z,19.33
2022-11-26T19:54:37.647Z,19.32
2022-11-26T19:57:03.939Z,19.30
2022-11-26T19:59:30.412Z,19.28
2022-11-26T20:01:56.979Z,19.28
2022-11-26T20:04:23.515Z,19.26
2022-11-26T20:06:49.980Z,19.24
2022-11-26T20:09:16.301Z,19.23
2022-11-26T20:11:42.604Z,19.22
2022-11-26T20:14:08.911Z,19.21
2022-11-26T20:16:35.277Z,19.19
2022-11-26T20:19:01.723Z,19.18
2022-11-26T20:21:28.033Z,19.16
2022-11-26T20:23:54.589Z,19.13
2022-11-26T20:26:20.974Z,19.13
2022-11-26T20:28:47.484Z,19.12
2022-11-26T20:31:13.965Z,19.08
2022-11-26T20:33:40.825Z,19.08
2022-11-26T20:36:07.153Z,19.06
2022-11-26T20:38:33.520Z,19.04
2022-11-26T20:41:00.364Z,19.02
2022-11-26T20:43:26.713Z,19.00
2022-11-26T20:45:53.370Z,19.01
2022-11-26T20:48:19.701Z,18.99
2022-11-26T20:50:46.165Z,18.97
2022-11-26T20:53:12.661Z,18.95
2022-11-26T20:55:39.266Z,18.93
2022-11-26T20:58:05.599Z,18.91
2022-11-26T21:00:32.112Z,18.88
2022-11-26T21:02:58.610Z,18.87
2022-11-26T21:05:24.988Z,18.83
2022-11-26T21:07:51.339Z,18.84
2022-11-26T21:10:17.783Z,18.81
2022-11-26T21:12:44.143Z,18.78
2022-11-26T21:15:10.450Z,18.75
2022-11-26T21:17:36.953Z,18.73
2022-11-26T21:20:03.352Z,18.72
2022-11-26T21:22:29.676Z,18.71
2022-11-26T21:24:56.106Z,18.67
2022-11-26T21:27:22.438Z,18.67
2022-11-26T21:29:49.072Z,18.65
2022-11-26T21:32:15.413Z,18.60
2022-11-26T21:34:41.721Z,18.60
2022-11-26T21:37:08.105Z,18.58
2022-11-26T21:39:34.470Z,18.57
2022-11-26T21:42:00.846Z,18.53
2022-11-26T21:44:27.365Z,18.50
2022-11-26T21:46:53.737Z,18.48
2022-11-26T21:49:20.109Z,18.47
2022-11-26T21:51:46.400Z,18.44
2022-11-26T21:54:12.709Z,18.43
2022-11-26T21:56:39.057Z,18.39
2022-11-26T21:59:05.538Z,18.37
2022-11-26T22:01:31.844Z,18.35
2022-11-26T22:03:58.328Z,18.34
2022-11-26T22:06:24.850Z,18.32
2022-11-26T22:08:51.445Z,18.31
2022-11-26T22:11:17.776Z,18.28
2022-11-26T22:13:44.108Z,18.26
2022-11-26T22:16:10.568Z,18.23
2022-11-26T22:18:36.916Z,18.25
2022-11-26T22:21:03.456Z,18.23
2022-11-26T22:23:29.780Z,18.19
2022-11-26T22:25:56.087Z,18.18
2022-11-26T22:28:28.467Z,18.16
2022-11-26T22:30:56.705Z,18.13
2022-11-26T22:33:23.097Z,18.11
2022-11-26T22:35:49.484Z,18.10
2022-11-26T22:38:15.982Z,18.09
2022-11-26T22:40:42.362Z,18.06
2022-11-26T22:43:08.733Z,18.03
2022-11-26T22:45:35.066Z,18.03
2022-11-26T22:48:01.830Z,18.00
2022-11-26T22:50:28.160Z,17.99
2022-11-26T22:52:54.584Z,17.96
2022-11-26T22:55:20.942Z,17.97
2022-11-26T22:57:47.416Z,17.95
2022-11-26T23:00:13.952Z,17.92
2022-11-26T23:02:40.675Z,17.91
2022-11-26T23:05:07.329Z,17.92
2022-11-26T23:07:34.080Z,17.89
2022-11-26T23:10:00.671Z,17.87
2022-11-26T23:12:27.277Z,17.84
2022-11-26T23:14:53.664Z,17.84
2022-11-26T23:17:20.001Z,17.82
2022-11-26T23:19:46.368Z,17.82
2022-11-26T23:22:12.791Z,17.78
2022-11-26T23:24:39.181Z,17.78
2022-11-26T23:27:05.620Z,17.77
2022-11-26T23:29:31.996Z,17.74
2022-11-26T23:31:58.368Z,17.76
2022-11-26T23:34:24.724Z,17.73
2022-11-26T23:36:51.039Z,17.71
2022-11-26T23:39:17.426Z,17.69
2022-11-26T23:41:43.785Z,17.68
2022-11-26T23:44:10.096Z,17.68
2022-11-26T23:46:36.543Z,17.66
2022-11-26T23:49:02.888Z,17.67
2022-11-26T23:51:29.232Z,17.64
2022-11-26T23:53:55.650Z,17.62
2022-11-26T23:56:22.221Z,17.62
2022-11-26T23:58:48.544Z,17.62
